Time;durP1;ratioP1;P1;durP2;ratioP2;P2;SDS_P1;SDS_P2;PMS_P1;PMS_P2;Temp;Humidity;BMP_temperature;BMP_pressure;BME280_temperature;BME280_humidity;BME280_pressure;Samples;Min_cycle;Max_cycle;Signal;HPM_P1;HPM_P2
2022/04/19 00:01:07;;;;;;;35.47;21.05;;;4.80;91.40;;;;;;5055520;28;20361;-58
2022/04/19 00:03:33;;;;;;;32.47;18.58;;;4.70;92.60;;;;;;5055254;28;20056;-60
2022/04/19 00:05:59;;;;;;;32.40;17.48;;;4.60;93.70;;;;;;5055346;28;20462;-61
2022/04/19 00:08:24;;;;;;;40.13;22.58;;;4.60;93.10;;;;;;5055376;28;20021;-54
2022/04/19 00:10:50;;;;;;;31.40;17.75;;;4.70;92.20;;;;;;5055273;28;20096;-58
2022/04/19 00:13:19;;;;;;;29.50;17.05;;;4.70;92.00;;;;;;5055479;28;20105;-58
2022/04/19 00:15:45;;;;;;;31.77;19.00;;;4.80;91.40;;;;;;5055074;28;20461;-58
2022/04/19 00:18:11;;;;;;;29.13;16.90;;;4.90;90.50;;;;;;5053971;28;20136;-56
2022/04/19 00:20:42;;;;;;;32.85;18.38;;;4.90;90.20;;;;;;5055383;28;20032;-58
2022/04/19 00:23:12;;;;;;;24.70;15.52;;;5.00;89.50;;;;;;5055173;28;20029;-53
2022/04/19 00:25:40;;;;;;;37.70;20.27;;;5.00;87.90;;;;;;5055162;28;20043;-58
2022/04/19 00:28:06;;;;;;;30.15;17.35;;;5.00;88.30;;;;;;5054925;28;20464;-58
2022/04/19 00:30:31;;;;;;;40.50;20.65;;;5.00;87.20;;;;;;5054897;28;20028;-58
2022/04/19 00:32:57;;;;;;;32.75;17.20;;;5.00;86.50;;;;;;5054611;28;20387;-58
2022/04/19 00:35:24;;;;;;;30.02;16.88;;;4.90;87.10;;;;;;5054965;28;20082;-58
2022/04/19 00:37:50;;;;;;;34.05;18.70;;;4.90;86.10;;;;;;5054810;28;20487;-61
2022/04/19 00:40:16;;;;;;;36.13;19.63;;;5.00;86.00;;;;;;5054601;28;20017;-62
2022/04/19 00:42:42;;;;;;;32.90;18.25;;;4.90;87.40;;;;;;5054647;28;20112;-59
2022/04/19 00:45:08;;;;;;;30.67;17.83;;;4.80;89.50;;;;;;5054644;28;20049;-57
2022/04/19 00:47:34;;;;;;;32.83;18.42;;;4.80;88.60;;;;;;5054641;28;20059;-54
2022/04/19 00:50:02;;;;;;;43.08;23.80;;;4.80;89.00;;;;;;5054613;28;20025;-60
2022/04/19 00:52:32;;;;;;;29.48;17.60;;;4.80;89.70;;;;;;5054596;28;20021;-59
2022/04/19 00:54:59;;;;;;;27.35;14.98;;;4.70;89.20;;;;;;5054395;28;20024;-59
2022/04/19 00:57:26;;;;;;;22.73;14.57;;;4.70;89.30;;;;;;5054526;28;20502;-60
2022/04/19 00:59:56;;;;;;;32.28;17.90;;;4.70;88.70;;;;;;5054657;28;20357;-61
2022/04/19 01:02:23;;;;;;;25.85;15.75;;;4.70;90.80;;;;;;5054326;28;20025;-58
2022/04/19 01:04:49;;;;;;;22.50;13.57;;;4.50;91.30;;;;;;5054740;28;20021;-60
2022/04/19 01:07:19;;;;;;;23.85;14.35;;;4.50;91.80;;;;;;5054207;28;20396;-61
2022/04/19 01:09:46;;;;;;;22.27;13.50;;;4.60;90.70;;;;;;5054129;28;20021;-59
2022/04/19 01:15:02;;;;;;;23.27;13.35;;;4.60;88.90;;;;;;5053878;28;20067;-61
2022/04/19 01:17:28;;;;;;;21.10;13.48;;;4.70;88.60;;;;;;5054304;28;20082;-60
2022/04/19 01:19:54;;;;;;;22.35;12.93;;;4.60;89.10;;;;;;5054102;28;20020;-52
2022/04/19 01:22:20;;;;;;;23.38;15.32;;;4.60;88.20;;;;;;5054162;28;20100;-58
2022/04/19 01:24:46;;;;;;;19.27;12.68;;;4.60;89.00;;;;;;5054218;28;20461;-58
2022/04/19 01:27:13;;;;;;;19.52;11.98;;;4.50;89.10;;;;;;5053814;28;20036;-56
2022/04/19 01:29:40;;;;;;;20.88;12.98;;;4.50;88.90;;;;;;5053505;28;20032;-58
2022/04/19 01:32:07;;;;;;;21.05;12.80;;;4.50;88.40;;;;;;5053790;28;20027;-54
2022/04/19 01:34:33;;;;;;;20.98;13.27;;;4.50;89.70;;;;;;5053921;28;20446;-61
2022/04/19 01:36:59;;;;;;;28.15;17.38;;;4.40;88.50;;;;;;5053914;28;20028;-60
2022/04/19 01:42:09;;;;;;;;;;;4.30;90.10;;;;;;5054332;28;20032;-57
2022/04/19 01:44:38;;;;;;;29.88;17.10;;;4.10;92.10;;;;;;5053377;28;19908;-56
2022/04/19 01:47:07;;;;;;;22.13;13.63;;;3.90;93.50;;;;;;5053793;28;20496;-59
2022/04/19 01:49:36;;;;;;;19.52;12.63;;;3.90;93.90;;;;;;5053101;28;20024;-60
2022/04/19 01:52:03;;;;;;;20.15;12.68;;;3.90;94.00;;;;;;5053465;28;20033;-56
2022/04/19 01:54:30;;;;;;;19.90;11.57;;;4.00;93.40;;;;;;5053375;28;20025;-57
2022/04/19 01:56:56;;;;;;;19.30;10.95;;;4.00;93.10;;;;;;5053301;28;20021;-56
2022/04/19 01:59:22;;;;;;;16.05;9.90;;;4.00;93.70;;;;;;5053443;28;20021;-58
2022/04/19 02:01:48;;;;;;;14.90;9.30;;;4.10;93.20;;;;;;5053355;28;20021;-58
2022/04/19 02:04:15;;;;;;;15.05;9.10;;;4.10;92.70;;;;;;5053543;28;20029;-60
2022/04/19 02:06:41;;;;;;;15.05;9.27;;;4.10;92.10;;;;;;5053445;28;20391;-57
2022/04/19 02:09:07;;;;;;;14.57;8.93;;;4.10;91.30;;;;;;5053349;28;20473;-56
2022/04/19 02:11:33;;;;;;;18.80;10.35;;;4.10;91.20;;;;;;5053239;28;20021;-61
2022/04/19 02:13:59;;;;;;;21.73;13.10;;;4.10;91.30;;;;;;5052888;28;20051;-57
2022/04/19 02:16:24;;;;;;;21.63;12.82;;;4.00;91.90;;;;;;5053009;28;20116;-54
2022/04/19 02:18:50;;;;;;;19.63;11.45;;;3.90;92.70;;;;;;5053451;28;20486;-58
2022/04/19 02:21:16;;;;;;;19.63;12.15;;;3.90;92.60;;;;;;5053001;28;20048;-52
2022/04/19 02:23:42;;;;;;;21.60;11.93;;;3.90;92.40;;;;;;5053406;28;20025;-58
2022/04/19 02:26:07;;;;;;;27.48;15.27;;;3.90;92.20;;;;;;5053006;28;20472;-60
2022/04/19 02:28:34;;;;;;;26.05;13.30;;;3.90;91.80;;;;;;5053006;28;20028;-59
2022/04/19 02:30:59;;;;;;;18.70;12.45;;;3.90;91.80;;;;;;5052924;28;20082;-57
2022/04/19 02:33:25;;;;;;;17.58;11.38;;;3.90;91.40;;;;;;5052987;28;20111;-55
2022/04/19 02:35:52;;;;;;;18.33;11.30;;;3.90;91.50;;;;;;5053194;28;20029;-58
2022/04/19 02:38:18;;;;;;;16.30;10.55;;;3.90;91.10;;;;;;5052963;28;20041;-59
2022/04/19 02:40:44;;;;;;;16.73;10.50;;;3.90;91.90;;;;;;5053421;28;20025;-57
2022/04/19 02:43:11;;;;;;;16.35;10.27;;;3.80;91.50;;;;;;5053017;28;20021;-59
2022/04/19 02:45:36;;;;;;;16.70;10.35;;;3.80;91.70;;;;;;5053004;28;20044;-59
2022/04/19 02:48:11;;;;;;;17.10;10.63;;;3.80;91.60;;;;;;5053060;28;20017;-58
2022/04/19 02:50:42;;;;;;;16.75;10.10;;;3.80;91.60;;;;;;5052755;28;20021;-56
2022/04/19 02:53:08;;;;;;;15.70;9.73;;;3.80;91.60;;;;;;5052787;28;20053;-60
2022/04/19 02:55:34;;;;;;;16.67;9.25;;;3.80;91.50;;;;;;5053091;28;20028;-56
2022/04/19 02:57:59;;;;;;;14.95;9.20;;;3.70;91.90;;;;;;5052517;28;20377;-56
2022/04/19 03:00:25;;;;;;;14.07;8.25;;;3.70;91.70;;;;;;5053622;28;20021;-60
2022/04/19 03:02:52;;;;;;;14.07;9.10;;;3.70;91.40;;;;;;5056606;28;20099;-55
2022/04/19 03:05:18;;;;;;;17.88;9.75;;;3.70;91.50;;;;;;5056411;28;20025;-57
2022/04/19 03:07:45;;;;;;;18.17;10.88;;;3.70;92.00;;;;;;5056783;28;20025;-58
2022/04/19 03:10:10;;;;;;;16.08;9.52;;;3.60;93.00;;;;;;5056537;28;20422;-57
2022/04/19 03:12:36;;;;;;;17.42;10.15;;;3.50;93.60;;;;;;5056410;28;20017;-60
2022/04/19 03:15:03;;;;;;;13.88;8.18;;;3.60;94.10;;;;;;5056124;28;20021;-55
2022/04/19 03:17:29;;;;;;;13.70;8.52;;;3.50;94.60;;;;;;5056271;28;20506;-57
2022/04/19 03:19:54;;;;;;;15.50;9.40;;;3.50;94.60;;;;;;5056306;28;20025;-59
2022/04/19 03:22:20;;;;;;;15.05;8.93;;;3.50;94.50;;;;;;5056188;28;20036;-58
2022/04/19 03:27:42;;;;;;;13.32;9.63;;;3.50;95.00;;;;;;5056081;28;20090;-61
2022/04/19 03:30:15;;;;;;;14.23;8.18;;;3.60;95.20;;;;;;5056049;28;20021;-57
2022/04/19 03:32:44;;;;;;;11.10;7.40;;;3.60;95.60;;;;;;5056158;28;20495;-55
2022/04/19 03:35:11;;;;;;;14.48;8.80;;;3.60;95.20;;;;;;5056163;28;20052;-59
2022/04/19 03:37:40;;;;;;;14.82;8.63;;;3.60;95.10;;;;;;5056001;28;20110;-58
2022/04/19 03:40:07;;;;;;;20.98;12.95;;;3.60;93.90;;;;;;5055631;28;20536;-58
2022/04/19 03:42:33;;;;;;;19.98;11.68;;;3.50;93.10;;;;;;5055946;28;20029;-58
2022/04/19 03:44:59;;;;;;;21.27;11.38;;;3.50;93.50;;;;;;5055888;28;20467;-59
2022/04/19 03:47:24;;;;;;;20.77;10.73;;;3.50;93.90;;;;;;5055999;28;20061;-59
2022/04/19 03:49:50;;;;;;;19.63;12.27;;;3.50;94.10;;;;;;5055755;28;20437;-59
2022/04/19 03:52:16;;;;;;;18.63;11.32;;;3.40;94.10;;;;;;5055683;28;20387;-59
2022/04/19 03:54:42;;;;;;;20.13;11.30;;;3.40;94.70;;;;;;5055592;28;20021;-59
2022/04/19 03:57:09;;;;;;;20.50;12.32;;;3.30;95.50;;;;;;5055440;28;20107;-56
2022/04/19 03:59:37;;;;;;;21.40;12.88;;;3.30;95.40;;;;;;5055802;28;20020;-59
2022/04/19 04:02:04;;;;;;;19.35;12.40;;;3.30;96.00;;;;;;5055484;28;20025;-58
2022/04/19 04:04:35;;;;;;;19.92;11.68;;;3.20;96.90;;;;;;5055382;28;20060;-62
2022/04/19 04:07:02;;;;;;;18.55;12.20;;;3.20;96.30;;;;;;5055404;28;20036;-56
2022/04/19 04:09:35;;;;;;;23.27;13.40;;;3.30;95.60;;;;;;5055503;28;20043;-54
2022/04/19 04:12:06;;;;;;;22.80;14.15;;;3.40;94.80;;;;;;5054966;28;20112;-57
2022/04/19 04:14:34;;;;;;;20.95;12.55;;;3.30;95.30;;;;;;5055187;28;20029;-59
2022/04/19 04:17:00;;;;;;;26.83;14.32;;;3.40;95.40;;;;;;5054975;28;20041;-57
2022/04/19 04:19:26;;;;;;;22.40;13.07;;;3.40;95.20;;;;;;5055243;28;20021;-59
2022/04/19 04:21:51;;;;;;;21.67;12.48;;;3.50;94.80;;;;;;5055243;28;20018;-55
2022/04/19 04:24:17;;;;;;;20.13;12.65;;;3.50;94.60;;;;;;5055089;28;20476;-57
2022/04/19 04:26:43;;;;;;;19.65;11.73;;;3.60;94.20;;;;;;5055258;28;20033;-57
2022/04/19 04:29:09;;;;;;;22.20;12.35;;;3.60;93.80;;;;;;5054880;28;20025;-58
2022/04/19 04:31:34;;;;;;;25.05;16.00;;;3.60;93.80;;;;;;5054912;28;20036;-56
2022/04/19 04:34:00;;;;;;;23.85;14.98;;;3.60;94.30;;;;;;5055107;28;20032;-56
2022/04/19 04:36:26;;;;;;;28.02;15.00;;;3.60;94.90;;;;;;5055055;28;20058;-56
2022/04/19 04:38:52;;;;;;;27.63;17.33;;;3.70;94.30;;;;;;5054742;28;20027;-60
2022/04/19 04:41:17;;;;;;;25.55;15.32;;;3.70;94.40;;;;;;5054757;28;20025;-55
2022/04/19 04:43:43;;;;;;;23.88;14.98;;;3.70;94.50;;;;;;5054795;28;20147;-60
2022/04/19 04:51:38;;;;;;;45.28;20.13;;;3.70;96.30;;;;;;5054533;28;19958;-55
2022/04/19 04:54:03;;;;;;;34.17;17.67;;;3.60;97.40;;;;;;5054281;28;20037;-57
2022/04/19 04:56:29;;;;;;;34.15;18.83;;;3.60;97.70;;;;;;5054318;28;20028;-61
2022/04/19 04:58:55;;;;;;;35.83;18.77;;;3.60;97.30;;;;;;5054352;28;20040;-57
2022/04/19 05:01:21;;;;;;;31.52;17.65;;;3.70;95.90;;;;;;5045987;28;20033;-57
2022/04/19 05:03:47;;;;;;;33.50;20.15;;;3.70;94.80;;;;;;5042764;28;20032;-57
2022/04/19 05:06:12;;;;;;;38.35;20.70;;;3.70;93.90;;;;;;5041688;28;20183;-57
2022/04/19 05:08:38;;;;;;;44.17;24.38;;;3.70;94.10;;;;;;5042147;28;20055;-53
2022/04/19 05:11:04;;;;;;;41.95;21.95;;;3.70;94.60;;;;;;5041491;28;20029;-57
2022/04/19 05:13:30;;;;;;;38.10;21.02;;;3.60;96.20;;;;;;5033726;28;20021;-57
2022/04/19 05:15:58;;;;;;;39.95;21.67;;;3.60;96.10;;;;;;5032035;28;20046;-57
2022/04/19 05:18:27;;;;;;;33.20;20.48;;;3.70;95.40;;;;;;5043905;28;20050;-59
2022/04/19 05:20:53;;;;;;;40.65;22.70;;;3.80;95.50;;;;;;5051662;28;20068;-58
2022/04/19 05:23:20;;;;;;;29.58;18.65;;;3.80;95.30;;;;;;5051700;28;20021;-55
2022/04/19 05:25:45;;;;;;;39.60;21.50;;;3.80;95.50;;;;;;5053833;28;20040;-58
2022/04/19 05:28:11;;;;;;;30.92;18.45;;;3.80;95.30;;;;;;5052132;28;20025;-56
2022/04/19 05:30:37;;;;;;;36.63;21.52;;;3.90;94.90;;;;;;5048517;28;20038;-56
2022/04/19 05:33:03;;;;;;;38.95;21.00;;;4.00;94.90;;;;;;5050891;28;20047;-57
2022/04/19 05:35:29;;;;;;;39.58;22.17;;;4.20;94.70;;;;;;5038123;28;20104;-57
2022/04/19 05:37:55;;;;;;;33.80;20.02;;;4.30;94.50;;;;;;5033239;28;20061;-55
2022/04/19 05:40:21;;;;;;;39.20;21.40;;;4.40;93.80;;;;;;5033658;28;20017;-56
2022/04/19 05:42:48;;;;;;;34.65;19.88;;;4.50;93.00;;;;;;5032291;28;20025;-55
2022/04/19 05:45:13;;;;;;;34.67;20.02;;;4.60;93.30;;;;;;5045598;28;20052;-58
2022/04/19 05:47:39;;;;;;;34.10;19.52;;;4.70;93.20;;;;;;5051320;28;20064;-56
2022/04/19 05:50:05;;;;;;;37.40;19.25;;;4.80;93.50;;;;;;5032725;28;20030;-56
2022/04/19 05:52:31;;;;;;;39.10;21.15;;;5.00;93.40;;;;;;5033214;28;20028;-54
2022/04/19 05:54:57;;;;;;;32.83;17.80;;;5.10;93.20;;;;;;5033706;28;20112;-59
2022/04/19 05:57:23;;;;;;;31.50;17.13;;;5.20;93.20;;;;;;5033577;28;20537;-56
2022/04/19 05:59:48;;;;;;;31.83;17.92;;;5.30;91.80;;;;;;5035792;28;20036;-57
2022/04/19 06:04:59;;;;;;;32.28;18.48;;;5.50;90.80;;;;;;5037091;28;20036;-56
2022/04/19 06:07:32;;;;;;;33.85;17.88;;;5.70;91.70;;;;;;5036746;28;20045;-55
2022/04/19 06:09:58;;;;;;;33.00;18.25;;;5.80;90.30;;;;;;5028274;28;20029;-57
2022/04/19 06:12:25;;;;;;;28.67;16.27;;;5.90;90.40;;;;;;5027886;28;20041;-57
2022/04/19 06:14:51;;;;;;;33.33;19.83;;;6.00;87.70;;;;;;5037387;28;20139;-56
2022/04/19 06:17:18;;;;;;;29.42;18.60;;;6.10;85.00;;;;;;5032767;28;20049;-59
2022/04/19 06:19:44;;;;;;;24.13;15.90;;;6.20;85.50;;;;;;5039530;28;20025;-58
2022/04/19 06:22:10;;;;;;;33.75;18.48;;;6.40;91.70;;;;;;5034080;28;20025;-57
2022/04/19 06:24:36;;;;;;;28.38;17.65;;;7.90;85.50;;;;;;5040671;28;20049;-56
2022/04/19 06:27:03;;;;;;;24.60;14.40;;;10.80;73.10;;;;;;5046732;28;20034;-58
2022/04/19 06:29:29;;;;;;;24.48;15.23;;;13.10;60.50;;;;;;5039888;28;20033;-56
2022/04/19 06:31:55;;;;;;;24.83;15.40;;;14.60;54.30;;;;;;5041468;28;20431;-56
2022/04/19 06:34:21;;;;;;;21.45;14.63;;;15.60;50.20;;;;;;5036516;28;20025;-53
2022/04/19 06:36:46;;;;;;;19.92;13.43;;;16.40;47.90;;;;;;5044717;28;20069;-58
2022/04/19 06:39:12;;;;;;;19.10;13.32;;;16.60;46.10;;;;;;5043257;28;20029;-57
2022/04/19 06:41:38;;;;;;;25.52;16.92;;;16.70;46.10;;;;;;5046047;28;20033;-57
2022/04/19 06:44:05;;;;;;;18.02;12.43;;;16.30;43.30;;;;;;5049084;28;20029;-56
2022/04/19 06:46:31;;;;;;;16.80;12.07;;;15.70;45.10;;;;;;5049813;28;20174;-56
2022/04/19 06:48:58;;;;;;;18.40;12.15;;;15.20;44.90;;;;;;5036257;28;20119;-53
2022/04/19 06:51:25;;;;;;;19.90;13.30;;;14.80;45.20;;;;;;5042415;28;20041;-58
2022/04/19 06:53:51;;;;;;;16.10;12.00;;;14.40;46.20;;;;;;5039753;28;20120;-54
2022/04/19 06:56:18;;;;;;;15.82;11.95;;;14.50;46.90;;;;;;5042919;28;20021;-63
2022/04/19 06:58:44;;;;;;;15.32;10.80;;;14.70;46.10;;;;;;5040640;28;20468;-62
2022/04/19 07:01:11;;;;;;;13.10;10.13;;;15.50;44.40;;;;;;5035091;28;20026;-61
2022/04/19 07:03:37;;;;;;;11.60;8.88;;;16.30;43.70;;;;;;5037097;28;20321;-62
2022/04/19 07:06:03;;;;;;;11.90;9.50;;;17.30;42.50;;;;;;5041115;28;20052;-61
2022/04/19 07:08:30;;;;;;;13.63;9.55;;;18.00;40.20;;;;;;5049576;28;20017;-62
2022/04/19 07:10:56;;;;;;;12.38;9.27;;;18.60;39.50;;;;;;5051735;28;20025;-61
2022/04/19 07:13:23;;;;;;;11.07;9.00;;;19.30;38.40;;;;;;5041550;28;20028;-62
2022/04/19 07:15:50;;;;;;;10.32;8.15;;;19.90;37.70;;;;;;5031756;28;20054;-61
2022/04/19 07:18:17;;;;;;;12.52;9.10;;;20.40;38.10;;;;;;5029869;28;20032;-63
2022/04/19 07:28:57;;;;;;;12.13;9.27;;;22.60;35.50;;;;;;5032888;28;20167;-59
2022/04/19 07:31:22;;;;;;;13.82;9.27;;;23.50;34.20;;;;;;5032153;28;20060;-62
2022/04/19 07:33:48;;;;;;;10.73;9.35;;;23.90;34.00;;;;;;5032722;28;20451;-60
2022/04/19 07:36:14;;;;;;;9.38;8.27;;;24.10;32.60;;;;;;5032606;28;20033;-62
2022/04/19 07:38:40;;;;;;;10.40;8.07;;;24.20;32.10;;;;;;5033906;28;20025;-63
2022/04/19 07:41:07;;;;;;;10.48;8.35;;;24.60;32.40;;;;;;5049537;28;20039;-60
2022/04/19 07:43:33;;;;;;;10.00;8.13;;;25.10;31.60;;;;;;5049788;28;20082;-63
2022/04/19 07:45:58;;;;;;;10.77;8.55;;;25.60;30.40;;;;;;5034907;28;20464;-61
2022/04/19 07:48:24;;;;;;;13.95;9.43;;;25.60;29.70;;;;;;5035599;28;20037;-61
2022/04/19 07:50:50;;;;;;;9.93;7.95;;;26.10;30.00;;;;;;5047105;28;20074;-61
2022/04/19 07:53:16;;;;;;;11.73;8.95;;;26.40;29.30;;;;;;5041958;28;20392;-65
2022/04/19 07:55:42;;;;;;;11.93;8.43;;;26.20;29.90;;;;;;5038638;28;20029;-62
2022/04/19 07:58:08;;;;;;;10.55;8.00;;;26.50;29.70;;;;;;5033590;28;20040;-60
2022/04/19 08:00:34;;;;;;;12.00;9.23;;;26.80;29.10;;;;;;5035594;28;20049;-61
2022/04/19 08:02:59;;;;;;;14.13;8.88;;;27.10;29.10;;;;;;5050870;28;20029;-60
2022/04/19 08:05:27;;;;;;;11.45;8.27;;;26.60;29.10;;;;;;5041769;28;20089;-61
2022/04/19 08:07:53;;;;;;;10.07;7.65;;;26.70;29.90;;;;;;5040594;28;20108;-62
2022/04/19 08:10:19;;;;;;;10.85;8.25;;;26.90;29.60;;;;;;5043938;28;20140;-61
2022/04/19 08:12:45;;;;;;;10.82;8.25;;;26.60;28.70;;;;;;5045084;28;20469;-62
2022/04/19 08:15:13;;;;;;;12.93;8.27;;;25.90;28.40;;;;;;5036814;28;20041;-62
2022/04/19 08:17:39;;;;;;;18.45;9.68;;;26.40;28.30;;;;;;5039888;28;20025;-62
2022/04/19 08:20:06;;;;;;;11.93;7.88;;;25.70;28.60;;;;;;5037931;28;20025;-59
2022/04/19 08:22:32;;;;;;;10.07;7.13;;;25.90;28.80;;;;;;5040058;28;20399;-63
2022/04/19 08:24:59;;;;;;;12.77;6.70;;;26.20;28.20;;;;;;5040369;28;20032;-62
2022/04/19 08:27:27;;;;;;;10.27;5.30;;;26.30;28.10;;;;;;5041038;28;20049;-63
2022/04/19 08:29:53;;;;;;;6.10;4.60;;;25.30;28.30;;;;;;5039342;28;20033;-62
2022/04/19 08:32:18;;;;;;;7.97;4.72;;;25.20;28.50;;;;;;5047767;28;20357;-62
2022/04/19 08:34:45;;;;;;;7.30;4.28;;;25.40;28.50;;;;;;5037465;28;20029;-63
2022/04/19 08:37:11;;;;;;;4.07;3.67;;;25.50;28.10;;;;;;5041126;28;20024;-64
2022/04/19 08:39:37;;;;;;;5.63;3.75;;;25.20;27.60;;;;;;5045990;28;20030;-67
2022/04/19 08:42:06;;;;;;;6.47;3.25;;;24.90;27.80;;;;;;5036997;28;20506;-67
2022/04/19 08:44:35;;;;;;;3.63;3.17;;;24.80;29.70;;;;;;5046173;28;20025;-67
2022/04/19 08:47:05;;;;;;;3.97;2.63;;;24.90;29.10;;;;;;5028454;28;20033;-66
2022/04/19 08:49:31;;;;;;;3.55;3.00;;;25.00;27.60;;;;;;5043661;28;20028;-67
2022/04/19 08:51:57;;;;;;;4.43;2.30;;;25.00;26.70;;;;;;5036773;28;20057;-63
2022/04/19 08:59:56;;;;;;;3.78;2.95;;;23.90;29.90;;;;;;5029507;28;20490;-66
2022/04/19 09:02:27;;;;;;;5.38;3.65;;;23.20;31.00;;;;;;5041377;28;20050;-65
2022/04/19 09:05:10;;;;;;;4.35;3.30;;;22.60;29.10;;;;;;5035100;28;20395;-66
2022/04/19 09:07:37;;;;;;;5.47;3.55;;;22.60;29.90;;;;;;5034563;28;20036;-66
2022/04/19 09:10:03;;;;;;;3.95;3.50;;;23.20;28.80;;;;;;5038656;28;20033;-65
2022/04/19 09:12:29;;;;;;;3.92;3.35;;;22.70;30.00;;;;;;5038046;28;20391;-67
2022/04/19 09:15:03;;;;;;;3.40;2.90;;;22.10;30.30;;;;;;5035497;28;20340;-65
2022/04/19 09:17:31;;;;;;;3.22;2.65;;;22.20;31.90;;;;;;5048031;28;20045;-63
2022/04/19 09:20:11;;;;;;;2.95;2.60;;;22.50;31.30;;;;;;5050239;28;20025;-65
2022/04/19 09:22:38;;;;;;;3.70;3.05;;;22.90;30.90;;;;;;5036837;28;20028;-69
2022/04/19 09:25:25;;;;;;;3.67;3.22;;;23.20;28.30;;;;;;5033123;28;20468;-64
2022/04/19 09:27:51;;;;;;;3.85;3.00;;;23.70;27.80;;;;;;5033577;28;20048;-65
2022/04/19 09:30:32;;;;;;;3.78;2.80;;;23.80;28.20;;;;;;5037993;28;20040;-66
2022/04/19 09:33:20;;;;;;;4.63;3.40;;;23.90;27.40;;;;;;5042915;28;20031;-64
2022/04/19 09:36:04;;;;;;;4.10;3.22;;;23.60;27.40;;;;;;5040181;28;20021;-65
2022/04/19 09:38:37;;;;;;;3.17;2.80;;;23.50;29.30;;;;;;5043168;28;20083;-66
2022/04/19 09:41:13;;;;;;;4.55;3.17;;;23.20;28.70;;;;;;5042381;28;20091;-66
2022/04/19 09:43:39;;;;;;;3.15;2.88;;;22.80;30.90;;;;;;5038869;28;20166;-65
2022/04/19 09:46:05;;;;;;;2.67;2.25;;;22.50;28.60;;;;;;5042420;28;20541;-66
2022/04/19 09:48:36;;;;;;;2.78;2.25;;;22.70;29.60;;;;;;5030055;28;20071;-70
2022/04/19 09:51:04;;;;;;;2.35;2.08;;;23.10;30.40;;;;;;5038405;28;20025;-65
2022/04/19 09:53:47;;;;;;;3.22;2.30;;;23.30;29.60;;;;;;5041151;28;20040;-65
2022/04/19 09:56:15;;;;;;;3.88;3.15;;;23.60;28.10;;;;;;5036244;28;20129;-69
2022/04/19 09:58:42;;;;;;;2.58;2.38;;;23.90;28.40;;;;;;5031691;28;20300;-64
2022/04/19 10:09:25;;;;;;;3.95;2.85;;;23.40;28.60;;;;;;5035272;28;20392;-59
2022/04/19 10:11:52;;;;;;;5.90;2.85;;;22.50;29.90;;;;;;5038879;28;20366;-62
2022/04/19 10:14:21;;;;;;;3.10;2.70;;;22.30;28.20;;;;;;5038072;28;20097;-63
2022/04/19 10:16:48;;;;;;;2.95;2.65;;;22.90;27.70;;;;;;5032442;28;20500;-64
2022/04/19 10:19:16;;;;;;;6.05;4.40;;;23.00;27.80;;;;;;5040360;28;20052;-66
2022/04/19 10:21:43;;;;;;;4.47;3.55;;;23.30;28.90;;;;;;5037919;28;20544;-64
2022/04/19 10:24:16;;;;;;;5.68;3.28;;;22.00;27.40;;;;;;5040455;28;20472;-63
2022/04/19 10:26:46;;;;;;;9.15;6.50;;;21.10;28.40;;;;;;5040100;28;20028;-61
2022/04/19 10:29:22;;;;;;;5.90;5.00;;;21.10;28.10;;;;;;5031396;28;20032;-62
2022/04/19 10:32:03;;;;;;;6.72;4.32;;;21.20;28.80;;;;;;5029930;28;20017;-63
2022/04/19 10:34:33;;;;;;;3.90;3.40;;;22.00;30.10;;;;;;5027324;28;20132;-64
2022/04/19 10:37:20;;;;;;;3.97;3.55;;;22.50;30.00;;;;;;5033820;28;20087;-61
2022/04/19 10:39:52;;;;;;;3.67;3.15;;;22.40;30.50;;;;;;5052223;28;20025;-65
2022/04/19 10:42:35;;;;;;;4.63;3.20;;;22.60;30.10;;;;;;5050802;28;20111;-62
2022/04/19 10:45:12;;;;;;;2.90;2.50;;;22.40;29.10;;;;;;5047847;28;20029;-63
2022/04/19 10:47:53;;;;;;;3.47;2.60;;;22.30;27.40;;;;;;5037446;28;20030;-64
2022/04/19 10:50:34;;;;;;;5.03;3.08;;;21.50;28.30;;;;;;5036643;28;20105;-62
2022/04/19 10:53:03;;;;;;;3.45;3.13;;;21.90;30.60;;;;;;5039739;28;20075;-60
2022/04/19 10:55:34;;;;;;;6.13;2.67;;;22.30;31.50;;;;;;5044835;28;20375;-65
2022/04/19 10:58:06;;;;;;;3.00;2.50;;;22.30;31.80;;;;;;5029577;28;20040;-64
2022/04/19 11:00:54;;;;;;;2.92;2.28;;;22.20;29.30;;;;;;5030520;28;20480;-63
2022/04/19 11:03:38;;;;;;;3.15;2.25;;;22.30;28.90;;;;;;5044770;28;20022;-64
2022/04/19 11:06:04;;;;;;;;;;;22.10;30.30;;;;;;5043562;28;20443;-65
2022/04/19 11:08:38;;;;;;;5.75;4.13;;;22.00;28.30;;;;;;5046657;28;19936;-66
2022/04/19 11:11:20;;;;;;;4.35;3.28;;;22.60;28.30;;;;;;5041335;28;20032;-67
2022/04/19 11:14:19;;;;;;;11.60;3.95;;;22.90;28.00;;;;;;5038921;28;20541;-63
2022/04/19 11:16:54;;;;;;;3.97;3.03;;;23.00;28.60;;;;;;5068277;28;20048;-55
2022/04/19 11:19:25;;;;;;;2.55;2.10;;;22.50;28.10;;;;;;5044795;28;20136;-59
2022/04/19 11:21:56;;;;;;;3.38;2.10;;;21.80;28.40;;;;;;5036963;28;20140;-59
2022/04/19 11:24:59;;;;;;;2.70;2.10;;;21.50;28.90;;;;;;5034560;28;20495;-59
2022/04/19 11:27:54;;;;;;;4.28;2.72;;;21.50;28.10;;;;;;5040460;28;20561;-59
2022/04/19 11:30:25;;;;;;;5.07;3.25;;;21.50;27.90;;;;;;5033454;28;20033;-62
2022/04/19 11:32:52;;;;;;;5.13;4.63;;;21.50;27.30;;;;;;5034144;28;20519;-62
2022/04/19 11:35:18;;;;;;;3.33;3.13;;;20.50;28.30;;;;;;5026622;28;20494;-61
2022/04/19 11:37:45;;;;;;;6.22;4.10;;;19.60;28.50;;;;;;5026085;28;20096;-61
2022/04/19 11:48:45;;;;;;;2.60;2.40;;;20.20;28.40;;;;;;5034868;28;20068;-62
2022/04/19 11:51:16;;;;;;;4.38;3.20;;;20.70;27.70;;;;;;5055319;28;20055;-64
2022/04/19 11:53:43;;;;;;;3.53;2.67;;;21.00;27.10;;;;;;5053523;28;20037;-64
2022/04/19 11:56:09;;;;;;;5.85;3.05;;;21.50;27.80;;;;;;5045031;28;20056;-61
2022/04/19 11:58:36;;;;;;;6.65;3.83;;;21.50;26.90;;;;;;5045610;28;20036;-64
2022/04/19 12:01:07;;;;;;;3.97;2.85;;;21.70;26.40;;;;;;5044894;28;20103;-62
2022/04/19 12:03:36;;;;;;;6.00;4.05;;;21.90;26.30;;;;;;5041347;28;20123;-62
2022/04/19 12:06:11;;;;;;;4.70;3.70;;;22.00;26.20;;;;;;5029932;28;21394;-65
2022/04/19 12:08:42;;;;;;;4.93;3.95;;;21.50;26.70;;;;;;5036184;28;20024;-64
2022/04/19 12:11:17;;;;;;;2.60;2.40;;;21.40;26.50;;;;;;5037902;28;20030;-63
2022/04/19 12:13:44;;;;;;;2.85;2.40;;;21.30;26.50;;;;;;5035831;28;20046;-62
2022/04/19 12:16:34;;;;;;;2.38;2.00;;;21.00;27.20;;;;;;5048496;28;20365;-62
2022/04/19 12:19:11;;;;;;;3.00;1.92;;;21.20;26.70;;;;;;5033781;28;20052;-62
2022/04/19 12:21:42;;;;;;;3.58;3.17;;;21.40;26.70;;;;;;5047584;28;20048;-64
2022/04/19 12:24:09;;;;;;;4.28;2.58;;;21.60;26.60;;;;;;5033096;28;20083;-65
2022/04/19 12:26:35;;;;;;;4.55;3.45;;;21.60;26.20;;;;;;5044380;28;20551;-62
2022/04/19 12:29:14;;;;;;;8.38;4.70;;;21.10;26.80;;;;;;5039145;28;20037;-64
2022/04/19 12:31:47;;;;;;;6.50;4.55;;;20.40;28.00;;;;;;5044907;28;20028;-64
2022/04/19 12:34:15;;;;;;;4.43;3.95;;;20.70;27.20;;;;;;5047292;28;20025;-64
2022/04/19 12:36:46;;;;;;;6.50;4.03;;;20.60;27.10;;;;;;5050960;28;20022;-63
2022/04/19 12:39:12;;;;;;;5.50;3.40;;;20.40;26.90;;;;;;5053309;28;20487;-64
2022/04/19 12:41:45;;;;;;;3.13;2.67;;;20.60;28.20;;;;;;5053354;28;20021;-64
2022/04/19 12:44:16;;;;;;;3.88;2.28;;;20.60;27.50;;;;;;5053835;28;20028;-62
2022/04/19 12:46:53;;;;;;;3.47;2.65;;;20.60;27.20;;;;;;5052516;28;20112;-62
2022/04/19 12:49:27;;;;;;;2.85;2.42;;;20.60;27.20;;;;;;5053290;28;20048;-63
2022/04/19 12:52:04;;;;;;;2.67;2.30;;;20.10;28.10;;;;;;5051486;28;20019;-62
2022/04/19 12:54:33;;;;;;;3.45;2.17;;;20.00;29.30;;;;;;5052281;28;20493;-62
2022/04/19 12:57:04;;;;;;;4.72;3.30;;;19.60;28.40;;;;;;5052723;28;20159;-64
2022/04/19 12:59:32;;;;;;;6.55;4.47;;;19.70;28.30;;;;;;5053204;28;20021;-62
2022/04/19 13:01:59;;;;;;;4.28;3.80;;;19.40;28.00;;;;;;5053389;28;20027;-63
2022/04/19 13:04:26;;;;;;;5.18;3.22;;;19.10;29.10;;;;;;5053738;28;20021;-63
2022/04/19 13:12:23;;;;;;;5.00;4.07;;;19.50;28.80;;;;;;5051711;28;20039;-64
2022/04/19 13:14:52;;;;;;;8.02;5.22;;;19.50;29.00;;;;;;5052123;28;20071;-63
2022/04/19 13:17:18;;;;;;;5.22;4.22;;;19.30;29.70;;;;;;5052396;28;20024;-62
2022/04/19 13:19:44;;;;;;;5.05;4.15;;;19.00;30.30;;;;;;5052264;28;20053;-62
2022/04/19 13:22:11;;;;;;;8.13;3.00;;;18.50;31.20;;;;;;5052948;28;20025;-64
2022/04/19 13:24:38;;;;;;;4.10;2.80;;;18.00;30.60;;;;;;5053355;28;20062;-64
2022/04/19 13:27:06;;;;;;;2.38;2.15;;;17.90;31.00;;;;;;5053231;28;20071;-63
2022/04/19 13:29:33;;;;;;;2.75;2.17;;;17.90;31.70;;;;;;5053124;28;20483;-64
2022/04/19 13:31:58;;;;;;;4.07;2.40;;;17.80;32.30;;;;;;5052702;28;20120;-63
2022/04/19 13:34:25;;;;;;;5.88;3.65;;;17.50;32.00;;;;;;5053753;28;20095;-64
2022/04/19 13:36:51;;;;;;;4.15;3.00;;;17.50;33.20;;;;;;5053676;28;20112;-64
2022/04/19 13:39:17;;;;;;;4.65;3.00;;;17.60;32.40;;;;;;5053986;28;20100;-64